createdAt,value
2018-06-10T00:00:32.262Z,1007.11
2018-06-10T00:02:32.299Z,1007.07
2018-06-10T00:03:32.558Z,1007.05
2018-06-10T00:04:32.129Z,1007.03
2018-06-10T00:05:32.156Z,1006.97
2018-06-10T00:06:32.164Z,1006.99
2018-06-10T00:07:32.190Z,1007.00
2018-06-10T00:08:32.198Z,1007.00
2018-06-10T00:09:32.214Z,1007.03
2018-06-10T00:10:32.233Z,1007.11
2018-06-10T00:11:32.254Z,1007.12
2018-06-10T00:12:32.266Z,1007.14
2018-06-10T00:13:32.291Z,1007.16
2018-06-10T00:14:32.301Z,1007.21
2018-06-10T00:15:32.317Z,1007.18
2018-06-10T00:16:32.334Z,1007.22
2018-06-10T00:17:32.351Z,1007.22
2018-06-10T00:18:32.372Z,1007.22
2018-06-10T00:19:32.387Z,1007.22
2018-06-10T00:20:32.407Z,1007.21
2018-06-10T00:21:32.421Z,1007.16
2018-06-10T00:22:32.452Z,1007.17
2018-06-10T00:23:32.555Z,1007.14
2018-06-10T00:24:32.471Z,1007.13
2018-06-10T00:25:32.496Z,1007.11
2018-06-10T00:26:32.506Z,1007.05
2018-06-10T00:27:32.532Z,1007.02
2018-06-10T00:28:32.549Z,1007.01
2018-06-10T00:29:32.560Z,1006.98
2018-06-10T00:30:32.575Z,1006.92
2018-06-10T00:31:32.592Z,1006.93
2018-06-10T00:32:32.608Z,1006.89
2018-06-10T00:33:32.625Z,1006.88
2018-06-10T00:34:32.643Z,1006.86
2018-06-10T00:35:32.661Z,1006.84
2018-06-10T00:36:32.777Z,1006.79
2018-06-10T00:37:32.712Z,1006.78
2018-06-10T00:38:32.712Z,1006.79
2018-06-10T00:39:32.730Z,1006.77
2018-06-10T00:40:32.744Z,1006.71
2018-06-10T00:41:32.763Z,1006.73
2018-06-10T00:42:32.781Z,1006.71
2018-06-10T00:43:32.798Z,1006.74
2018-06-10T00:44:32.815Z,1006.77
2018-06-10T00:45:32.834Z,1006.76
2018-06-10T00:46:32.849Z,1006.76
2018-06-10T00:47:32.866Z,1006.78
2018-06-10T00:48:32.888Z,1006.80
2018-06-10T00:49:32.901Z,1006.80
2018-06-10T00:50:32.922Z,1006.79
2018-06-10T00:51:32.935Z,1006.79
2018-06-10T00:52:32.952Z,1006.76
2018-06-10T00:53:32.980Z,1006.77
2018-06-10T00:54:33.073Z,1006.77
2018-06-10T00:55:33.001Z,1006.82
2018-06-10T00:56:33.030Z,1006.78
2018-06-10T00:57:33.050Z,1006.77
2018-06-10T00:58:33.056Z,1006.74
2018-06-10T00:59:33.081Z,1006.73
2018-06-10T01:00:33.089Z,1006.67
2018-06-10T01:01:33.109Z,1006.67
2018-06-10T01:02:33.137Z,1006.68
2018-06-10T01:03:33.253Z,1006.67
2018-06-10T01:04:33.157Z,1006.66
2018-06-10T01:05:33.175Z,1006.65
2018-06-10T01:06:33.193Z,1006.71
2018-06-10T01:07:33.210Z,1006.68
2018-06-10T01:08:33.227Z,1006.65
2018-06-10T01:09:33.290Z,1006.63
2018-06-10T01:10:33.262Z,1006.67
2018-06-10T01:11:33.279Z,1006.68
2018-06-10T01:12:33.298Z,1006.70
2018-06-10T01:13:33.311Z,1006.75
2018-06-10T01:14:33.328Z,1006.79
2018-06-10T01:15:33.346Z,1006.86
2018-06-10T01:16:33.362Z,1006.88
2018-06-10T01:17:33.381Z,1006.89
2018-06-10T01:18:33.397Z,1006.90
2018-06-10T01:19:33.414Z,1006.89
2018-06-10T01:20:33.433Z,1006.90
2018-06-10T01:21:33.448Z,1006.89
2018-06-10T01:22:33.464Z,1006.86
2018-06-10T01:23:33.482Z,1006.85
2018-06-10T01:24:33.501Z,1006.89
2018-06-10T01:25:33.516Z,1006.90
2018-06-10T01:26:33.534Z,1006.89
2018-06-10T01:27:33.549Z,1006.93
2018-06-10T01:28:33.567Z,1006.92
2018-06-10T01:29:33.583Z,1006.97
2018-06-10T01:30:33.600Z,1007.06
2018-06-10T01:31:33.617Z,1007.09
2018-06-10T01:32:33.637Z,1007.09
2018-06-10T01:33:33.648Z,1007.00
2018-06-10T01:34:33.665Z,1006.92
2018-06-10T01:35:33.686Z,1006.92
2018-06-10T01:36:33.701Z,1006.97
2018-06-10T01:37:33.715Z,1006.90
2018-06-10T01:38:33.732Z,1006.91
2018-06-10T01:39:33.776Z,1006.86
2018-06-10T01:40:33.767Z,1006.77
2018-06-10T01:41:33.783Z,1006.73
2018-06-10T01:42:33.901Z,1006.67
2018-06-10T01:44:34.265Z,1006.68
2018-06-10T01:45:33.974Z,1006.76
2018-06-10T01:46:33.865Z,1006.75
2018-06-10T01:47:33.882Z,1006.71
2018-06-10T01:48:33.919Z,1006.70
2018-06-10T01:49:33.915Z,1006.67
2018-06-10T01:50:33.933Z,1006.68
2018-06-10T01:51:33.952Z,1006.70
2018-06-10T01:52:33.969Z,1006.68
2018-06-10T01:53:33.983Z,1006.70
2018-06-10T01:54:34.016Z,1006.72
2018-06-10T01:55:34.016Z,1006.72
2018-06-10T01:56:34.034Z,1006.74
2018-06-10T01:57:34.052Z,1006.73
2018-06-10T01:58:34.070Z,1006.69
2018-06-10T01:59:34.084Z,1006.71
2018-06-10T02:00:34.100Z,1006.73
2018-06-10T02:01:34.115Z,1006.70
2018-06-10T02:02:34.133Z,1006.72
2018-06-10T02:03:34.150Z,1006.75
2018-06-10T02:04:34.166Z,1006.78
2018-06-10T02:05:34.189Z,1006.79
2018-06-10T02:06:34.201Z,1006.76
2018-06-10T02:07:34.219Z,1006.69
2018-06-10T02:08:34.246Z,1006.67
2018-06-10T02:09:34.261Z,1006.67
2018-06-10T02:10:34.280Z,1006.63
2018-06-10T02:11:34.285Z,1006.65
2018-06-10T02:12:34.300Z,1006.67
2018-06-10T02:13:34.328Z,1006.68
2018-06-10T02:14:34.335Z,1006.67
2018-06-10T02:15:34.363Z,1006.68
2018-06-10T02:16:34.396Z,1006.70
2018-06-10T02:17:34.385Z,1006.66
2018-06-10T02:18:34.402Z,1006.69
2018-06-10T02:19:34.419Z,1006.63
2018-06-10T02:20:34.435Z,1006.63
2018-06-10T02:21:34.452Z,1006.61
2018-06-10T02:22:34.483Z,1006.62
2018-06-10T02:23:34.490Z,1006.64
2018-06-10T02:24:34.504Z,1006.66
2018-06-10T02:25:34.520Z,1006.63
2018-06-10T02:26:34.539Z,1006.62
2018-06-10T02:27:34.554Z,1006.63
2018-06-10T02:28:34.573Z,1006.63
2018-06-10T02:29:34.590Z,1006.64
2018-06-10T02:30:34.628Z,1006.65
2018-06-10T02:31:34.622Z,1006.65
2018-06-10T02:32:34.645Z,1006.69
2018-06-10T02:33:34.655Z,1006.68
2018-06-10T02:34:34.674Z,1006.72
2018-06-10T02:35:34.693Z,1006.71
2018-06-10T02:36:34.706Z,1006.71
2018-06-10T02:37:34.728Z,1006.73
2018-06-10T02:38:34.741Z,1006.73
2018-06-10T02:39:34.759Z,1006.74
2018-06-10T02:40:34.776Z,1006.74
2018-06-10T02:41:34.793Z,1006.72
2018-06-10T02:42:34.812Z,1006.67
2018-06-10T02:43:34.827Z,1006.67
2018-06-10T02:44:34.843Z,1006.66
2018-06-10T02:45:34.858Z,1006.66
2018-06-10T02:46:34.876Z,1006.69
2018-06-10T02:47:34.894Z,1006.67
2018-06-10T02:48:34.911Z,1006.70
2018-06-10T02:49:34.979Z,1006.62
2018-06-10T02:50:34.954Z,1006.66
2018-06-10T02:51:35.000Z,1006.66
2018-06-10T02:52:34.989Z,1006.65
2018-06-10T02:53:35.002Z,1006.62
2018-06-10T02:54:35.014Z,1006.67
2018-06-10T02:55:35.031Z,1006.64
2018-06-10T02:56:35.047Z,1006.66
2018-06-10T02:57:35.065Z,1006.65
2018-06-10T02:58:35.081Z,1006.64
2018-06-10T02:59:35.106Z,1006.65
2018-06-10T03:00:35.118Z,1006.63
2018-06-10T03:01:35.134Z,1006.62
2018-06-10T03:02:35.153Z,1006.62
2018-06-10T03:03:35.166Z,1006.63
2018-06-10T03:04:35.191Z,1006.65
2018-06-10T03:05:35.201Z,1006.66
2018-06-10T03:06:35.215Z,1006.64
2018-06-10T03:07:35.233Z,1006.65
2018-06-10T03:08:35.259Z,1006.64
2018-06-10T03:09:35.264Z,1006.60
2018-06-10T03:10:35.278Z,1006.60
2018-06-10T03:11:35.297Z,1006.66
2018-06-10T03:12:35.311Z,1006.67
2018-06-10T03:13:35.327Z,1006.65
2018-06-10T03:14:35.355Z,1006.68
2018-06-10T03:15:35.362Z,1006.64
2018-06-10T03:16:35.379Z,1006.65
2018-06-10T03:17:35.396Z,1006.67
2018-06-10T03:18:35.414Z,1006.67
2018-06-10T03:19:35.430Z,1006.68
2018-06-10T03:20:35.446Z,1006.65
2018-06-10T03:21:35.468Z,1006.65
2018-06-10T03:22:35.483Z,1006.68
2018-06-10T03:23:35.528Z,1006.69
2018-06-10T03:24:35.515Z,1006.70
2018-06-10T03:25:35.531Z,1006.69
2018-06-10T03:26:35.578Z,1006.72
2018-06-10T03:27:35.565Z,1006.71
2018-06-10T03:28:35.580Z,1006.73
2018-06-10T03:29:35.598Z,1006.71
2018-06-10T03:30:35.621Z,1006.68
2018-06-10T03:31:35.633Z,1006.70
2018-06-10T03:32:35.648Z,1006.74
2018-06-10T03:33:35.670Z,1006.77
2018-06-10T03:34:35.681Z,1006.77
2018-06-10T03:35:35.700Z,1006.77
2018-06-10T03:36:35.715Z,1006.75
2018-06-10T03:37:35.736Z,1006.74
2018-06-10T03:38:35.751Z,1006.80
2018-06-10T03:39:35.769Z,1006.78
2018-06-10T03:40:35.783Z,1006.80
2018-06-10T03:41:35.800Z,1006.85
2018-06-10T03:42:35.817Z,1006.84
2018-06-10T03:43:35.834Z,1006.84
2018-06-10T03:44:35.850Z,1006.84
2018-06-10T03:45:35.866Z,1006.80
2018-06-10T03:46:35.889Z,1006.83
2018-06-10T03:47:35.902Z,1006.80
2018-06-10T03:48:35.916Z,1006.86
2018-06-10T03:49:35.934Z,1006.85
2018-06-10T03:50:35.955Z,1006.87
2018-06-10T03:51:35.970Z,1006.84
2018-06-10T03:52:35.984Z,1006.82
2018-06-10T03:53:36.002Z,1006.83
2018-06-10T03:54:36.024Z,1006.87
2018-06-10T03:55:36.138Z,1006.85
2018-06-10T03:56:36.052Z,1006.87
2018-06-10T03:57:36.070Z,1006.89
2018-06-10T03:58:36.187Z,1006.86
2018-06-10T03:59:36.111Z,1006.91
2018-06-10T04:00:36.121Z,1006.91
2018-06-10T04:01:36.138Z,1006.88
2018-06-10T04:02:36.153Z,1006.89
2018-06-10T04:03:36.175Z,1006.87
2018-06-10T04:04:36.193Z,1006.87
2018-06-10T04:05:36.205Z,1006.86
2018-06-10T04:06:36.222Z,1006.85
2018-06-10T04:07:36.241Z,1006.85
2018-06-10T04:08:36.256Z,1006.88
2018-06-10T04:09:36.276Z,1006.86
2018-06-10T04:10:36.289Z,1006.84
2018-06-10T04:11:36.305Z,1006.86
2018-06-10T04:12:36.330Z,1006.86
2018-06-10T04:13:36.353Z,1006.86
2018-06-10T04:14:36.355Z,1006.85
2018-06-10T04:15:36.373Z,1006.87
2018-06-10T04:16:36.391Z,1006.86
2018-06-10T04:17:36.410Z,1006.90
2018-06-10T04:18:36.428Z,1006.86
2018-06-10T04:19:36.444Z,1006.88
2018-06-10T04:20:36.460Z,1006.92
2018-06-10T04:21:36.473Z,1006.89
2018-06-10T04:22:36.495Z,1006.93
2018-06-10T04:23:36.556Z,1006.93
2018-06-10T04:24:36.524Z,1006.94
2018-06-10T04:25:36.540Z,1006.94
2018-06-10T04:26:36.558Z,1006.93
2018-06-10T04:27:36.576Z,1006.95
2018-06-10T04:28:36.593Z,1006.95
2018-06-10T04:29:36.608Z,1006.93
2018-06-10T04:30:36.639Z,1006.94
2018-06-10T04:31:36.648Z,1006.93
2018-06-10T04:32:36.662Z,1006.94
2018-06-10T04:33:36.684Z,1006.94
2018-06-10T04:34:36.708Z,1006.91
2018-06-10T04:35:36.711Z,1006.94
2018-06-10T04:36:36.728Z,1006.91
2018-06-10T04:37:36.744Z,1006.90
2018-06-10T04:38:36.763Z,1006.93
2018-06-10T04:39:36.778Z,1006.89
2018-06-10T04:40:36.796Z,1006.90
2018-06-10T04:41:36.809Z,1006.88
2018-06-10T04:42:36.832Z,1006.88
2018-06-10T04:43:36.845Z,1006.90
2018-06-10T04:44:36.863Z,1006.86
2018-06-10T04:45:36.877Z,1006.85
2018-06-10T04:46:36.895Z,1006.82
2018-06-10T04:47:36.907Z,1006.80
2018-06-10T04:48:36.922Z,1006.77
2018-06-10T04:49:36.939Z,1006.75
2018-06-10T04:50:36.957Z,1006.77
2018-06-10T04:51:36.980Z,1006.77
2018-06-10T04:52:36.990Z,1006.77
2018-06-10T04:53:37.010Z,1006.74
2018-06-10T04:54:37.025Z,1006.74
2018-06-10T04:55:37.041Z,1006.73
2018-06-10T04:56:37.058Z,1006.75
2018-06-10T04:57:37.076Z,1006.71
2018-06-10T04:58:37.093Z,1006.68
2018-06-10T04:59:37.108Z,1006.66
2018-06-10T05:00:37.124Z,1006.69
2018-06-10T05:01:37.143Z,1006.66
2018-06-10T05:02:37.173Z,1006.67
2018-06-10T05:03:37.175Z,1006.67
2018-06-10T05:04:37.191Z,1006.66
2018-06-10T05:05:37.208Z,1006.68
2018-06-10T05:06:37.225Z,1006.62
2018-06-10T05:07:37.243Z,1006.62
2018-06-10T05:08:37.258Z,1006.59
2018-06-10T05:09:37.279Z,1006.62
2018-06-10T05:10:37.294Z,1006.58
2018-06-10T05:11:37.309Z,1006.61
2018-06-10T05:12:37.328Z,1006.57
2018-06-10T05:13:37.342Z,1006.55
2018-06-10T05:14:37.365Z,1006.55
2018-06-10T05:15:37.376Z,1006.59
2018-06-10T05:16:37.398Z,1006.58
2018-06-10T05:17:37.410Z,1006.56
2018-06-10T05:18:37.427Z,1006.55
2018-06-10T05:19:37.478Z,1006.57
2018-06-10T05:20:37.465Z,1006.57
2018-06-10T05:21:37.484Z,1006.56
2018-06-10T05:22:37.499Z,1006.59
2018-06-10T05:23:37.512Z,1006.53
2018-06-10T05:24:37.527Z,1006.55
2018-06-10T05:25:37.545Z,1006.56
2018-06-10T05:26:37.563Z,1006.54
2018-06-10T05:27:37.578Z,1006.56
2018-06-10T05:28:37.595Z,1006.55
2018-06-10T05:29:37.612Z,1006.56
2018-06-10T05:30:37.633Z,1006.58
2018-06-10T05:31:37.648Z,1006.63
2018-06-10T05:33:37.797Z,1006.64
2018-06-10T05:34:37.761Z,1006.68
2018-06-10T05:35:37.722Z,1006.61
2018-06-10T05:36:37.732Z,1006.65
2018-06-10T05:37:37.772Z,1006.70
2018-06-10T05:38:37.765Z,1006.68
2018-06-10T05:39:37.781Z,1006.72
2018-06-10T05:40:37.799Z,1006.72
2018-06-10T05:41:37.814Z,1006.77
2018-06-10T05:42:37.836Z,1006.78
2018-06-10T05:43:37.853Z,1006.76
2018-06-10T05:44:37.868Z,1006.78
2018-06-10T05:45:37.882Z,1006.79
2018-06-10T05:46:37.903Z,1006.77
2018-06-10T05:47:37.918Z,1006.78
2018-06-10T05:48:37.939Z,1006.79
2018-06-10T05:49:37.950Z,1006.77
2018-06-10T05:50:37.971Z,1006.77
2018-06-10T05:51:37.988Z,1006.78
2018-06-10T05:52:38.000Z,1006.79
2018-06-10T05:53:38.027Z,1006.78
2018-06-10T05:54:38.039Z,1006.83
2018-06-10T05:55:38.054Z,1006.79
2018-06-10T05:56:38.072Z,1006.82
2018-06-10T05:57:38.091Z,1006.81
2018-06-10T05:58:38.105Z,1006.79
2018-06-10T05:59:38.221Z,1006.85
2018-06-10T06:00:38.139Z,1006.80
2018-06-10T06:01:38.161Z,1006.83
2018-06-10T06:02:38.172Z,1006.85
2018-06-10T06:03:38.188Z,1006.83
2018-06-10T06:04:38.211Z,1006.82
2018-06-10T06:05:38.223Z,1006.82
2018-06-10T06:06:38.241Z,1006.84
2018-06-10T06:07:38.257Z,1006.80
2018-06-10T06:08:38.274Z,1006.82
2018-06-10T06:09:38.292Z,1006.82
2018-06-10T06:10:38.319Z,1006.82
2018-06-10T06:11:38.324Z,1006.84
2018-06-10T06:12:38.340Z,1006.86
2018-06-10T06:13:38.358Z,1006.87
2018-06-10T06:14:38.375Z,1006.89
2018-06-10T06:15:38.394Z,1006.93
2018-06-10T06:16:38.410Z,1006.95
2018-06-10T06:17:38.426Z,1006.93
2018-06-10T06:18:38.444Z,1006.92
2018-06-10T06:19:38.461Z,1006.90
2018-06-10T06:20:38.478Z,1006.92
2018-06-10T06:21:38.493Z,1006.93
2018-06-10T06:22:38.512Z,1006.94
2018-06-10T06:23:38.529Z,1006.93
2018-06-10T06:24:38.548Z,1006.99
2018-06-10T06:25:38.566Z,1006.96
2018-06-10T06:26:38.585Z,1006.95
2018-06-10T06:27:38.598Z,1006.98
2018-06-10T06:28:38.606Z,1006.94
2018-06-10T06:29:38.622Z,1006.97
2018-06-10T06:30:38.641Z,1006.98
2018-06-10T06:31:38.666Z,1006.91
2018-06-10T06:32:38.689Z,1006.92
2018-06-10T06:33:38.693Z,1006.92
2018-06-10T06:34:38.710Z,1006.99
2018-06-10T06:35:38.726Z,1006.99
2018-06-10T06:36:38.846Z,1006.96
2018-06-10T06:37:38.759Z,1006.97
2018-06-10T06:38:38.786Z,1006.99
2018-06-10T06:39:38.792Z,1007.01
2018-06-10T06:40:38.818Z,1007.00
2018-06-10T06:41:38.827Z,1007.01
2018-06-10T06:42:38.844Z,1007.02
2018-06-10T06:43:38.859Z,1007.06
2018-06-10T06:44:38.968Z,1007.06
2018-06-10T06:45:38.907Z,1007.07
2018-06-10T06:46:38.914Z,1007.07
2018-06-10T06:47:38.927Z,1007.07
2018-06-10T06:48:38.944Z,1007.11
2018-06-10T06:49:38.960Z,1007.09
2018-06-10T06:50:38.979Z,1007.09
2018-06-10T06:51:38.994Z,1007.08
2018-06-10T06:52:39.098Z,1007.10
2018-06-10T06:53:39.043Z,1007.07
2018-06-10T06:54:39.045Z,1007.12
2018-06-10T06:55:39.067Z,1007.11
2018-06-10T06:56:39.080Z,1007.14
2018-06-10T06:57:39.097Z,1007.13
2018-06-10T06:58:39.111Z,1007.14
2018-06-10T06:59:39.145Z,1007.16
2018-06-10T07:00:39.145Z,1007.14
2018-06-10T07:01:39.171Z,1007.17
2018-06-10T07:02:39.180Z,1007.21
2018-06-10T07:03:39.198Z,1007.22
2018-06-10T07:04:39.221Z,1007.24
2018-06-10T07:05:39.233Z,1007.26
2018-06-10T07:06:39.255Z,1007.28
2018-06-10T07:07:39.271Z,1007.24
2018-06-10T07:08:39.298Z,1007.26
2018-06-10T07:09:39.300Z,1007.28
2018-06-10T07:10:39.334Z,1007.29
2018-06-10T07:11:39.343Z,1007.28
2018-06-10T07:12:39.353Z,1007.31
2018-06-10T07:13:39.365Z,1007.28
2018-06-10T07:14:39.388Z,1007.30
2018-06-10T07:15:39.466Z,1007.30
2018-06-10T07:16:39.505Z,1007.30
2018-06-10T07:17:39.490Z,1007.31
2018-06-10T07:18:39.481Z,1007.30
2018-06-10T07:19:39.468Z,1007.30
2018-06-10T07:20:39.486Z,1007.29
2018-06-10T07:21:39.504Z,1007.30
2018-06-10T07:22:39.524Z,1007.31
2018-06-10T07:23:39.546Z,1007.30
2018-06-10T07:24:39.555Z,1007.35
2018-06-10T07:25:39.574Z,1007.35
2018-06-10T07:26:39.599Z,1007.34
2018-06-10T07:27:39.613Z,1007.36
2018-06-10T07:28:39.631Z,1007.38
2018-06-10T07:29:39.643Z,1007.35
2018-06-10T07:30:39.661Z,1007.37
2018-06-10T07:31:39.679Z,1007.39
2018-06-10T07:32:39.696Z,1007.37
2018-06-10T07:33:39.718Z,1007.37
2018-06-10T07:34:39.727Z,1007.32
2018-06-10T07:35:39.746Z,1007.31
2018-06-10T07:36:39.765Z,1007.33
2018-06-10T07:37:39.779Z,1007.33
2018-06-10T07:38:39.809Z,1007.34
2018-06-10T07:39:39.817Z,1007.29
2018-06-10T07:40:39.898Z,1007.32
2018-06-10T07:41:39.850Z,1007.30
2018-06-10T07:42:39.880Z,1007.32
2018-06-10T07:43:39.888Z,1007.33
2018-06-10T07:44:39.902Z,1007.34
2018-06-10T07:45:39.919Z,1007.33
2018-06-10T07:46:39.943Z,1007.35
2018-06-10T07:47:39.960Z,1007.37
2018-06-10T07:48:40.048Z,1007.39
2018-06-10T07:49:39.997Z,1007.37
2018-06-10T07:50:40.070Z,1007.36
2018-06-10T07:51:40.046Z,1007.39
2018-06-10T07:52:40.125Z,1007.38
2018-06-10T07:53:40.063Z,1007.40
2018-06-10T07:54:40.083Z,1007.37
2018-06-10T07:55:40.098Z,1007.37
2018-06-10T07:56:40.111Z,1007.37
2018-06-10T07:57:40.128Z,1007.34
2018-06-10T07:58:40.158Z,1007.39
2018-06-10T07:59:40.173Z,1007.35
2018-06-10T08:00:40.208Z,1007.41
2018-06-10T08:01:40.201Z,1007.41
2018-06-10T08:02:40.256Z,1007.41
2018-06-10T08:03:40.236Z,1007.45
2018-06-10T08:04:40.253Z,1007.41
2018-06-10T08:05:40.270Z,1007.47
2018-06-10T08:06:40.291Z,1007.44
2018-06-10T08:07:40.311Z,1007.48
2018-06-10T08:08:40.323Z,1007.44
2018-06-10T08:09:40.338Z,1007.45
2018-06-10T08:10:40.359Z,1007.44
2018-06-10T08:11:40.371Z,1007.39
2018-06-10T08:12:40.388Z,1007.44
2018-06-10T08:13:40.406Z,1007.42
2018-06-10T08:14:40.425Z,1007.46
2018-06-10T08:15:40.444Z,1007.46
2018-06-10T08:16:40.466Z,1007.43
2018-06-10T08:17:40.481Z,1007.41
2018-06-10T08:18:40.532Z,1007.42
2018-06-10T08:19:40.515Z,1007.41
2018-06-10T08:20:40.534Z,1007.37
2018-06-10T08:21:40.549Z,1007.39
2018-06-10T08:22:40.574Z,1007.35
2018-06-10T08:23:40.599Z,1007.32
2018-06-10T08:24:40.652Z,1007.29
2018-06-10T08:25:40.630Z,1007.28
2018-06-10T08:26:40.666Z,1007.28
2018-06-10T08:27:40.660Z,1007.29
2018-06-10T08:28:40.679Z,1007.28
2018-06-10T08:29:40.703Z,1007.29
2018-06-10T08:30:40.718Z,1007.30
2018-06-10T08:31:40.738Z,1007.28
2018-06-10T08:32:40.754Z,1007.28
2018-06-10T08:33:40.790Z,1007.30
2018-06-10T08:34:40.789Z,1007.25
2018-06-10T08:35:40.808Z,1007.25
2018-06-10T08:36:40.825Z,1007.27
2018-06-10T08:37:40.844Z,1007.29
2018-06-10T08:38:40.864Z,1007.24
2018-06-10T08:39:40.884Z,1007.18
2018-06-10T08:40:40.897Z,1007.16
2018-06-10T08:41:40.916Z,1007.13
2018-06-10T08:42:40.936Z,1007.14
2018-06-10T08:43:40.956Z,1007.18
2018-06-10T08:44:40.983Z,1007.18
2018-06-10T08:45:40.991Z,1007.19
2018-06-10T08:46:41.007Z,1007.22
2018-06-10T08:47:41.039Z,1007.25
2018-06-10T08:48:41.046Z,1007.24
2018-06-10T08:49:41.064Z,1007.26
2018-06-10T08:50:41.087Z,1007.21
2018-06-10T08:51:41.102Z,1007.22
2018-06-10T08:52:41.134Z,1007.23
2018-06-10T08:53:41.139Z,1007.22
2018-06-10T08:54:41.242Z,1007.25
2018-06-10T08:55:41.238Z,1007.22
2018-06-10T08:56:41.195Z,1007.24
2018-06-10T08:57:41.324Z,1007.24
2018-06-10T08:58:41.227Z,1007.24
2018-06-10T08:59:41.250Z,1007.26
2018-06-10T09:00:41.317Z,1007.27
2018-06-10T09:01:41.586Z,1007.25
2018-06-10T09:02:41.342Z,1007.25
2018-06-10T09:03:41.317Z,1007.26
2018-06-10T09:04:41.337Z,1007.30
2018-06-10T09:05:41.357Z,1007.32
2018-06-10T09:06:41.379Z,1007.29
2018-06-10T09:07:41.396Z,1007.33
2018-06-10T09:08:41.516Z,1007.33
2018-06-10T09:09:41.431Z,1007.29
2018-06-10T09:10:41.450Z,1007.28
2018-06-10T09:11:41.467Z,1007.27
2018-06-10T09:12:41.485Z,1007.28
2018-06-10T09:13:41.504Z,1007.31
2018-06-10T09:14:41.614Z,1007.28
2018-06-10T09:15:41.541Z,1007.30
2018-06-10T09:16:41.561Z,1007.29
2018-06-10T09:17:41.581Z,1007.31
2018-06-10T09:18:41.600Z,1007.29
2018-06-10T09:19:41.605Z,1007.30
2018-06-10T09:20:41.633Z,1007.33
2018-06-10T09:21:41.662Z,1007.36
2018-06-10T09:22:41.668Z,1007.34
2018-06-10T09:23:41.698Z,1007.32
2018-06-10T09:24:41.704Z,1007.36
2018-06-10T09:25:41.718Z,1007.37
2018-06-10T09:26:42.043Z,1007.35
2018-06-10T09:27:41.758Z,1007.41
2018-06-10T09:28:41.892Z,1007.40
2018-06-10T09:29:41.806Z,1007.40
2018-06-10T09:30:41.809Z,1007.39
2018-06-10T09:31:41.828Z,1007.42
2018-06-10T09:32:41.849Z,1007.38
2018-06-10T09:33:41.863Z,1007.37
2018-06-10T09:34:41.884Z,1007.36
2018-06-10T09:35:41.917Z,1007.35
2018-06-10T09:36:41.923Z,1007.39
2018-06-10T09:37:41.965Z,1007.42
2018-06-10T09:38:41.956Z,1007.43
2018-06-10T09:39:41.997Z,1007.47
2018-06-10T09:40:41.998Z,1007.42
2018-06-10T09:41:42.012Z,1007.44
2018-06-10T09:42:42.034Z,1007.46
2018-06-10T09:43:42.044Z,1007.46
2018-06-10T09:44:42.106Z,1007.48
2018-06-10T09:45:42.080Z,1007.43
2018-06-10T09:46:42.099Z,1007.44
2018-06-10T09:47:42.120Z,1007.41
2018-06-10T09:48:42.133Z,1007.36
2018-06-10T09:49:42.174Z,1007.33
2018-06-10T09:50:42.171Z,1007.37
2018-06-10T09:51:42.187Z,1007.38
2018-06-10T09:52:42.218Z,1007.35
2018-06-10T09:53:42.228Z,1007.38
2018-06-10T09:54:42.254Z,1007.37
2018-06-10T09:55:42.505Z,1007.33
2018-06-10T09:56:42.277Z,1007.37
2018-06-10T09:57:42.305Z,1007.35
2018-06-10T09:58:42.316Z,1007.38
2018-06-10T09:59:42.335Z,1007.39
2018-06-10T10:00:42.356Z,1007.39
2018-06-10T10:01:42.377Z,1007.44
2018-06-10T10:02:42.442Z,1007.44
2018-06-10T10:03:42.416Z,1007.48
2018-06-10T10:04:42.496Z,1007.45
2018-06-10T10:05:42.495Z,1007.46
2018-06-10T10:06:42.464Z,1007.42
2018-06-10T10:07:42.491Z,1007.45
2018-06-10T10:08:42.545Z,1007.47
2018-06-10T10:09:42.527Z,1007.43
2018-06-10T10:10:42.541Z,1007.40
2018-06-10T10:11:42.567Z,1007.36
2018-06-10T10:12:42.573Z,1007.37
2018-06-10T10:13:42.594Z,1007.40
2018-06-10T10:14:42.629Z,1007.42
2018-06-10T10:15:42.632Z,1007.44
2018-06-10T10:16:42.647Z,1007.45
2018-06-10T10:17:42.780Z,1007.44
2018-06-10T10:18:42.687Z,1007.46
2018-06-10T10:19:42.709Z,1007.44
2018-06-10T10:20:42.722Z,1007.45
2018-06-10T10:21:42.741Z,1007.49
2018-06-10T10:22:42.760Z,1007.48
2018-06-10T10:23:42.783Z,1007.51
2018-06-10T10:24:42.818Z,1007.48
2018-06-10T10:25:42.828Z,1007.50
2018-06-10T10:26:42.838Z,1007.52
2018-06-10T10:27:42.852Z,1007.52
2018-06-10T10:28:42.878Z,1007.58
2018-06-10T10:29:42.913Z,1007.56
2018-06-10T10:30:42.912Z,1007.49
2018-06-10T10:31:42.930Z,1007.54
2018-06-10T10:32:42.947Z,1007.48
2018-06-10T10:33:42.970Z,1007.48
2018-06-10T10:34:42.985Z,1007.49
2018-06-10T10:35:43.007Z,1007.53
2018-06-10T10:36:43.023Z,1007.56
2018-06-10T10:37:43.049Z,1007.52
2018-06-10T10:38:43.063Z,1007.51
2018-06-10T10:39:43.156Z,1007.53
2018-06-10T10:40:43.557Z,1007.52
2018-06-10T10:41:43.180Z,1007.56
2018-06-10T10:42:43.186Z,1007.55
2018-06-10T10:43:43.154Z,1007.60
2018-06-10T10:44:43.178Z,1007.58
2018-06-10T10:45:43.206Z,1007.63
2018-06-10T10:46:43.216Z,1007.63
2018-06-10T10:47:43.229Z,1007.61
2018-06-10T10:48:43.265Z,1007.60
2018-06-10T10:49:43.268Z,1007.60
2018-06-10T10:50:43.285Z,1007.58
2018-06-10T10:51:43.311Z,1007.64
2018-06-10T10:52:43.325Z,1007.66
2018-06-10T10:53:43.357Z,1007.66
2018-06-10T10:54:43.364Z,1007.63
2018-06-10T10:55:43.384Z,1007.61
2018-06-10T10:56:43.405Z,1007.64
2018-06-10T10:57:43.424Z,1007.66
2018-06-10T10:58:43.440Z,1007.67
2018-06-10T10:59:43.467Z,1007.65
2018-06-10T11:00:43.476Z,1007.66
2018-06-10T11:01:43.495Z,1007.65
2018-06-10T11:02:43.523Z,1007.65
2018-06-10T11:03:43.558Z,1007.67
2018-06-10T11:04:43.554Z,1007.66
2018-06-10T11:05:43.603Z,1007.68
2018-06-10T11:06:43.593Z,1007.61
2018-06-10T11:07:43.638Z,1007.67
2018-06-10T11:08:43.630Z,1007.62
2018-06-10T11:09:43.652Z,1007.65
2018-06-10T11:10:43.667Z,1007.64
2018-06-10T11:11:43.687Z,1007.70
2018-06-10T11:12:43.705Z,1007.64
2018-06-10T11:13:43.726Z,1007.61
2018-06-10T11:14:43.818Z,1007.58
2018-06-10T11:15:43.883Z,1007.57
2018-06-10T11:16:44.317Z,1007.59
2018-06-10T11:17:43.901Z,1007.61
2018-06-10T11:18:43.847Z,1007.63
2018-06-10T11:19:43.842Z,1007.64
2018-06-10T11:20:43.864Z,1007.65
2018-06-10T11:21:44.185Z,1007.63
2018-06-10T11:22:43.895Z,1007.60
2018-06-10T11:23:43.914Z,1007.62
2018-06-10T11:24:43.940Z,1007.62
2018-06-10T11:25:43.962Z,1007.61
2018-06-10T11:26:43.972Z,1007.68
2018-06-10T11:27:43.999Z,1007.71
2018-06-10T11:28:44.015Z,1007.72
2018-06-10T11:29:44.036Z,1007.72
2018-06-10T11:30:44.055Z,1007.70
2018-06-10T11:31:44.083Z,1007.70
2018-06-10T11:32:44.105Z,1007.72
2018-06-10T11:33:44.107Z,1007.75
2018-06-10T11:34:44.128Z,1007.72
2018-06-10T11:35:44.161Z,1007.74
2018-06-10T11:36:44.170Z,1007.73
2018-06-10T11:37:44.192Z,1007.72
2018-06-10T11:38:44.201Z,1007.71
2018-06-10T11:39:44.244Z,1007.69
2018-06-10T11:40:44.240Z,1007.69
2018-06-10T11:41:44.258Z,1007.69
2018-06-10T11:42:44.281Z,1007.71
2018-06-10T11:43:44.304Z,1007.71
2018-06-10T11:44:44.343Z,1007.69
2018-06-10T11:45:44.487Z,1007.66
2018-06-10T11:46:44.531Z,1007.65
2018-06-10T11:47:44.605Z,1007.65
2018-06-10T11:48:44.902Z,1007.65
2018-06-10T11:50:44.621Z,1007.72
2018-06-10T11:51:45.074Z,1007.77
2018-06-10T11:52:44.476Z,1007.70
2018-06-10T11:53:44.506Z,1007.71
2018-06-10T11:54:44.523Z,1007.76
2018-06-10T11:55:44.535Z,1007.72
2018-06-10T11:56:44.556Z,1007.73
2018-06-10T11:57:44.582Z,1007.74
2018-06-10T11:58:44.606Z,1007.68
2018-06-10T11:59:44.616Z,1007.65
2018-06-10T12:00:44.658Z,1007.67
2018-06-10T12:01:44.660Z,1007.72
2018-06-10T12:02:44.693Z,1007.66
2018-06-10T12:03:44.712Z,1007.69
2018-06-10T12:04:44.754Z,1007.68
2018-06-10T12:05:44.738Z,1007.73
2018-06-10T12:06:44.766Z,1007.70
2018-06-10T12:07:44.776Z,1007.77
2018-06-10T12:08:44.809Z,1007.74
2018-06-10T12:09:44.819Z,1007.71